Time;durP1;ratioP1;P1;durP2;ratioP2;P2;SDS_P1;SDS_P2;PMS_P1;PMS_P2;Temp;Humidity;BMP_temperature;BMP_pressure;BME280_temperature;BME280_humidity;BME280_pressure;Samples;Min_cycle;Max_cycle;Signal;HPM_P1;HPM_P2
2022/09/08 00:01:58;;;;;;;26.87;24.27;;;19.90;1.00;;;;;;4994556;28;20698;-54
2022/09/08 00:04:24;;;;;;;26.60;24.00;;;20.00;1.00;;;;;;4988696;28;20431;-53
2022/09/08 00:06:50;;;;;;;27.30;24.70;;;20.00;1.00;;;;;;4989304;28;20576;-53
2022/09/08 00:09:16;;;;;;;27.77;24.83;;;20.00;1.00;;;;;;4995758;28;20198;-54
2022/09/08 00:11:42;;;;;;;27.63;24.93;;;19.90;1.00;;;;;;4990863;28;20457;-54
2022/09/08 00:14:08;;;;;;;27.40;24.57;;;19.90;1.00;;;;;;4991106;28;20194;-54
2022/09/08 00:16:38;;;;;;;26.27;23.70;;;19.70;1.00;;;;;;4991597;28;20198;-54
2022/09/08 00:19:04;;;;;;;27.40;24.70;;;19.80;1.00;;;;;;4990035;28;20834;-53
2022/09/08 00:21:30;;;;;;;27.10;24.37;;;19.80;1.00;;;;;;4990132;28;20449;-53
2022/09/08 00:23:56;;;;;;;27.33;24.67;;;19.80;1.00;;;;;;4990778;28;20428;-54
2022/09/08 00:26:22;;;;;;;25.70;23.30;;;19.80;1.00;;;;;;4990323;28;20695;-54
2022/09/08 00:28:48;;;;;;;25.97;23.37;;;19.80;1.00;;;;;;4990900;28;20449;-54
2022/09/08 00:31:14;;;;;;;28.37;25.40;;;19.90;1.00;;;;;;4993652;28;20190;-54
2022/09/08 00:33:39;;;;;;;26.03;23.63;;;19.80;1.00;;;;;;4992415;28;20965;-54
2022/09/08 00:36:07;;;;;;;26.30;23.90;;;19.80;1.00;;;;;;4994902;28;20194;-52
2022/09/08 00:38:33;;;;;;;25.83;23.50;;;19.90;1.00;;;;;;4992178;28;20196;-54
2022/09/08 00:40:59;;;;;;;28.03;25.23;;;19.80;1.00;;;;;;4993930;28;20458;-55
2022/09/08 00:43:35;;;;;;;27.00;24.10;;;19.80;1.00;;;;;;4992548;28;20965;-54
2022/09/08 00:46:09;;;;;;;27.37;24.73;;;19.70;1.00;;;;;;4990543;28;20518;-53
2022/09/08 00:48:44;;;;;;;27.87;25.07;;;19.70;1.00;;;;;;4988760;28;21138;-53
2022/09/08 00:51:12;;;;;;;25.67;23.33;;;19.60;1.00;;;;;;4990513;28;20863;-54
2022/09/08 00:53:38;;;;;;;26.03;23.57;;;19.70;1.00;;;;;;4988597;28;20981;-53
2022/09/08 00:56:07;;;;;;;27.10;24.50;;;19.70;1.00;;;;;;4989841;28;20443;-54
2022/09/08 00:58:38;;;;;;;25.63;23.00;;;19.70;1.00;;;;;;4992986;28;20453;-55
2022/09/08 01:01:07;;;;;;;26.93;24.33;;;19.70;1.00;;;;;;4985189;28;20429;-54
2022/09/08 01:03:34;;;;;;;28.47;23.07;;;19.70;1.00;;;;;;4992243;28;20427;-54
2022/09/08 01:15:06;;;;;;;24.57;22.20;;;19.50;1.00;;;;;;4991061;28;20985;-53
2022/09/08 01:17:32;;;;;;;26.30;23.70;;;19.50;1.00;;;;;;4996519;28;20428;-55
2022/09/08 01:20:01;;;;;;;24.90;22.60;;;19.40;1.00;;;;;;4988810;28;20461;-53
2022/09/08 01:22:31;;;;;;;26.70;24.00;;;19.50;1.00;;;;;;4990664;28;20424;-53
2022/09/08 01:25:27;;;;;;;26.00;23.43;;;19.50;1.00;;;;;;4994363;28;20496;-54
2022/09/08 01:27:59;;;;;;;25.57;22.87;;;19.50;1.00;;;;;;4991511;28;20446;-54
2022/09/08 01:30:25;;;;;;;25.47;22.97;;;19.40;1.00;;;;;;4989786;28;20456;-54
2022/09/08 01:32:51;;;;;;;25.87;23.40;;;19.50;1.00;;;;;;4993729;28;20462;-54
2022/09/08 01:35:35;;;;;;;24.47;21.90;;;19.50;1.00;;;;;;4990039;28;20198;-53
2022/09/08 01:38:01;;;;;;;25.00;22.40;;;19.50;1.00;;;;;;4988180;28;20580;-55
2022/09/08 01:40:27;;;;;;;26.33;23.93;;;19.40;1.00;;;;;;4990959;28;20455;-54
2022/09/08 01:42:52;;;;;;;24.17;21.80;;;19.40;1.00;;;;;;4991676;28;20551;-52
2022/09/08 01:45:18;;;;;;;25.43;22.93;;;19.40;1.00;;;;;;4984265;28;20206;-53
2022/09/08 01:47:43;;;;;;;24.63;22.43;;;19.30;1.00;;;;;;4986785;28;20265;-53
2022/09/08 01:50:09;;;;;;;24.70;22.20;;;19.30;1.00;;;;;;4988429;28;20671;-52
2022/09/08 01:52:35;;;;;;;24.60;22.10;;;19.30;1.00;;;;;;4989978;28;20243;-54
2022/09/08 01:55:02;;;;;;;29.20;24.67;;;19.30;1.00;;;;;;4988592;28;20195;-54
2022/09/08 01:57:28;;;;;;;28.47;25.47;;;19.20;1.00;;;;;;4990761;28;20429;-53
2022/09/08 01:59:53;;;;;;;29.13;24.20;;;19.20;1.00;;;;;;4989497;28;20420;-54
2022/09/08 02:02:19;;;;;;;25.23;21.67;;;19.20;1.00;;;;;;4987451;28;20575;-54
2022/09/08 02:04:44;;;;;;;24.77;22.47;;;19.30;1.00;;;;;;4989129;28;20210;-53
2022/09/08 02:07:10;;;;;;;26.50;23.90;;;19.30;1.00;;;;;;4999604;28;20209;-54
2022/09/08 02:09:36;;;;;;;26.33;23.63;;;19.30;1.00;;;;;;4999206;28;20241;-54
2022/09/08 02:12:03;;;;;;;26.00;23.37;;;19.30;1.00;;;;;;4989267;28;20187;-53
2022/09/08 02:14:29;;;;;;;24.80;22.10;;;19.30;1.00;;;;;;4990028;28;20526;-54
2022/09/08 02:16:54;;;;;;;24.07;21.00;;;19.30;1.00;;;;;;4989210;28;20452;-54
2022/09/08 02:19:20;;;;;;;22.57;20.47;;;19.30;1.00;;;;;;5001113;28;20232;-54
2022/09/08 02:21:46;;;;;;;21.83;19.87;;;19.20;1.00;;;;;;4990482;28;20193;-54
2022/09/08 02:24:11;;;;;;;22.90;20.60;;;19.20;1.00;;;;;;4990442;28;20294;-52
2022/09/08 02:26:38;;;;;;;26.80;24.10;;;19.20;1.00;;;;;;4991774;28;20213;-54
2022/09/08 02:29:08;;;;;;;22.07;20.07;;;19.10;1.00;;;;;;4992168;28;20199;-54
2022/09/08 02:31:34;;;;;;;24.23;21.63;;;19.20;1.00;;;;;;4988910;28;20471;-53
2022/09/08 02:34:00;;;;;;;22.93;20.60;;;19.10;1.00;;;;;;4988710;28;20434;-53
2022/09/08 02:36:26;;;;;;;21.97;19.97;;;19.10;1.00;;;;;;5003642;28;20470;-54
2022/09/08 02:38:53;;;;;;;22.07;19.93;;;19.10;1.00;;;;;;4991574;28;20428;-53
2022/09/08 02:41:23;;;;;;;23.60;21.30;;;19.20;1.00;;;;;;4993429;28;20246;-54
2022/09/08 02:43:48;;;;;;;22.50;20.20;;;19.20;1.00;;;;;;4993394;28;20445;-54
2022/09/08 02:46:15;;;;;;;22.50;20.60;;;19.20;1.00;;;;;;4994854;28;20472;-54
2022/09/08 02:48:41;;;;;;;22.17;20.17;;;19.20;1.00;;;;;;4994334;28;20599;-54
2022/09/08 02:51:09;;;;;;;23.50;21.20;;;19.20;1.00;;;;;;4989616;28;20498;-53
2022/09/08 02:53:36;;;;;;;23.53;21.10;;;19.20;1.00;;;;;;4991193;28;20191;-52
2022/09/08 02:56:08;;;;;;;21.47;19.40;;;19.20;1.00;;;;;;4994341;28;20467;-54
2022/09/08 02:58:34;;;;;;;23.00;20.87;;;19.10;1.00;;;;;;4992572;28;20428;-51
2022/09/08 03:01:00;;;;;;;22.83;20.73;;;19.10;1.00;;;;;;5007514;28;20517;-54
2022/09/08 03:03:26;;;;;;;24.20;21.90;;;19.10;1.00;;;;;;4992747;28;20476;-53
2022/09/08 03:05:53;;;;;;;22.00;19.17;;;19.10;1.00;;;;;;4993557;28;20930;-53
2022/09/08 03:08:20;;;;;;;23.23;20.93;;;19.10;1.00;;;;;;4988910;28;20572;-55
2022/09/08 03:10:48;;;;;;;21.83;19.87;;;19.00;1.00;;;;;;4999100;28;20436;-52
2022/09/08 03:13:14;;;;;;;23.23;21.03;;;19.00;1.00;;;;;;4993094;28;20532;-54
2022/09/08 03:15:40;;;;;;;23.57;21.27;;;19.00;1.00;;;;;;4992869;28;20836;-54
2022/09/08 03:18:06;;;;;;;22.90;20.63;;;19.10;1.00;;;;;;4993342;28;20486;-53
2022/09/08 03:20:34;;;;;;;22.93;20.77;;;19.10;1.00;;;;;;4994010;28;20193;-53
2022/09/08 03:23:00;;;;;;;24.07;21.73;;;19.20;1.00;;;;;;4989254;28;20202;-52
2022/09/08 03:25:26;;;;;;;22.30;20.17;;;19.10;1.00;;;;;;4992539;28;20477;-54
2022/09/08 03:27:52;;;;;;;23.10;20.90;;;19.10;1.00;;;;;;4993865;28;20751;-54
2022/09/08 03:30:18;;;;;;;21.80;19.70;;;19.00;1.00;;;;;;4989564;28;20454;-53
2022/09/08 03:32:45;;;;;;;20.97;19.17;;;19.00;1.00;;;;;;4994655;28;20213;-54
2022/09/08 03:35:13;;;;;;;22.27;20.20;;;18.90;1.00;;;;;;4992989;28;20432;-55
2022/09/08 03:37:40;;;;;;;21.63;19.43;;;19.00;1.00;;;;;;5000093;28;20474;-54
2022/09/08 03:40:10;;;;;;;21.07;19.07;;;18.90;1.00;;;;;;4990989;28;20445;-53
2022/09/08 03:42:38;;;;;;;21.60;19.40;;;18.90;1.00;;;;;;4989881;28;20472;-53
2022/09/08 03:45:07;;;;;;;21.47;19.27;;;18.80;1.00;;;;;;4988469;28;20419;-54
2022/09/08 03:47:33;;;;;;;21.10;19.20;;;18.80;1.00;;;;;;4993209;28;20481;-54
2022/09/08 03:49:59;;;;;;;21.70;19.50;;;18.80;1.00;;;;;;4989816;28;20923;-54
2022/09/08 03:52:26;;;;;;;23.37;21.03;;;18.80;1.00;;;;;;4988867;28;20500;-53
2022/09/08 03:54:52;;;;;;;22.53;20.43;;;18.90;1.00;;;;;;4990918;28;20541;-54
2022/09/08 03:57:24;;;;;;;26.70;22.50;;;18.90;1.00;;;;;;4993664;28;20428;-52
2022/09/08 03:59:51;;;;;;;24.53;21.07;;;18.90;1.00;;;;;;4989680;28;20457;-53
2022/09/08 04:02:18;;;;;;;23.10;20.90;;;18.80;1.00;;;;;;4990352;28;20539;-53
2022/09/08 04:04:48;;;;;;;21.83;19.80;;;18.80;1.00;;;;;;4995106;28;20432;-55
2022/09/08 04:07:13;;;;;;;22.80;18.97;;;18.80;1.00;;;;;;4991740;28;20918;-53
2022/09/08 04:09:41;;;;;;;21.60;19.60;;;18.90;1.00;;;;;;4991894;28;20588;-53
2022/09/08 04:12:07;;;;;;;21.77;19.27;;;18.90;1.00;;;;;;4990936;28;20205;-55
2022/09/08 04:14:33;;;;;;;21.70;18.40;;;18.90;1.00;;;;;;4988243;28;20425;-52
2022/09/08 04:16:59;;;;;;;22.10;19.87;;;19.00;1.00;;;;;;4992207;28;20474;-54
2022/09/08 04:19:24;;;;;;;22.10;19.70;;;19.00;1.00;;;;;;5001860;28;20451;-51
2022/09/08 04:21:50;;;;;;;21.30;19.30;;;19.10;1.00;;;;;;4991007;28;20455;-54
2022/09/08 04:24:16;;;;;;;22.23;19.97;;;19.20;1.00;;;;;;4992124;28;20197;-55
2022/09/08 04:26:41;;;;;;;20.47;18.53;;;19.10;1.00;;;;;;4991484;28;20237;-54
2022/09/08 04:29:07;;;;;;;20.50;18.53;;;19.10;1.00;;;;;;4991097;28;20206;-53
2022/09/08 04:31:35;;;;;;;19.50;17.67;;;19.10;1.00;;;;;;4995267;28;20179;-54
2022/09/08 04:34:01;;;;;;;20.07;18.03;;;19.20;1.00;;;;;;4988638;28;20453;-54
2022/09/08 04:36:27;;;;;;;18.40;16.70;;;19.20;1.00;;;;;;4997613;28;20489;-55
2022/09/08 04:38:58;;;;;;;18.90;17.17;;;19.20;1.00;;;;;;4991740;28;21076;-52
2022/09/08 04:41:25;;;;;;;19.63;17.73;;;19.20;1.00;;;;;;4990778;28;20214;-53
2022/09/08 04:43:52;;;;;;;19.37;17.27;;;19.20;1.00;;;;;;4988679;28;20545;-54
2022/09/08 04:46:18;;;;;;;20.00;17.87;;;19.20;1.00;;;;;;4991367;28;20859;-53
2022/09/08 04:48:45;;;;;;;18.00;16.30;;;19.30;1.00;;;;;;5001355;28;20590;-54
2022/09/08 04:51:13;;;;;;;18.43;16.60;;;19.30;1.00;;;;;;4992730;28;20435;-55
2022/09/08 04:53:38;;;;;;;16.33;14.83;;;19.30;1.00;;;;;;4989944;28;20446;-53
2022/09/08 04:56:08;;;;;;;16.73;15.03;;;19.40;1.00;;;;;;4989610;28;20435;-53
2022/09/08 04:58:36;;;;;;;17.00;15.40;;;19.40;1.00;;;;;;4993471;28;20186;-53
2022/09/08 05:01:10;;;;;;;16.37;14.43;;;19.50;1.00;;;;;;4990542;28;20948;-54
2022/09/08 05:03:36;;;;;;;16.03;14.43;;;19.50;1.00;;;;;;4993350;28;20452;-53
2022/09/08 05:06:11;;;;;;;15.03;13.73;;;19.60;1.00;;;;;;4989272;28;20476;-53
2022/09/08 05:08:38;;;;;;;16.67;14.93;;;19.70;1.00;;;;;;4988956;28;20460;-55
2022/09/08 05:11:06;;;;;;;15.13;13.50;;;19.80;1.00;;;;;;4990379;28;20842;-55
2022/09/08 05:13:32;;;;;;;15.90;14.10;;;19.70;1.00;;;;;;4987012;28;20480;-53
2022/09/08 05:16:09;;;;;;;14.50;13.10;;;19.80;1.00;;;;;;4983588;28;22420;-55
2022/09/08 05:18:35;;;;;;;13.83;12.20;;;19.80;1.00;;;;;;4992809;28;20457;-54
2022/09/08 05:21:02;;;;;;;13.90;12.20;;;19.80;1.00;;;;;;4992382;28;20477;-55
2022/09/08 05:23:28;;;;;;;13.20;12.00;;;20.00;1.00;;;;;;4987924;28;20856;-53
2022/09/08 05:26:06;;;;;;;13.03;11.83;;;19.90;1.00;;;;;;4989522;28;20623;-54
2022/09/08 05:28:38;;;;;;;13.03;11.73;;;20.00;1.00;;;;;;4987353;28;20187;-55
2022/09/08 05:31:07;;;;;;;13.13;12.03;;;20.10;1.00;;;;;;4999989;28;20930;-54
2022/09/08 05:33:34;;;;;;;13.27;11.87;;;20.20;1.00;;;;;;4999945;28;20428;-55
2022/09/08 05:36:00;;;;;;;13.90;12.60;;;20.20;1.00;;;;;;4991174;28;20596;-53
2022/09/08 05:38:26;;;;;;;13.33;11.80;;;20.30;1.00;;;;;;4971847;28;20456;-52
2022/09/08 05:40:52;;;;;;;12.70;11.50;;;20.40;1.00;;;;;;4988156;28;20434;-55
2022/09/08 05:43:18;;;;;;;13.23;12.03;;;20.60;1.00;;;;;;4990724;28;20785;-53
2022/09/08 05:45:46;;;;;;;12.37;11.17;;;20.70;1.00;;;;;;4988296;28;20210;-54
2022/09/08 05:48:11;;;;;;;13.33;11.93;;;20.80;1.00;;;;;;4990988;28;20863;-54
2022/09/08 05:50:40;;;;;;;12.80;11.77;;;21.00;1.00;;;;;;4984596;28;20537;-54
2022/09/08 05:53:05;;;;;;;11.83;10.80;;;21.00;1.00;;;;;;4984696;28;20186;-54
2022/09/08 05:55:31;;;;;;;12.87;11.40;;;21.10;1.00;;;;;;4991476;28;20435;-54
2022/09/08 05:57:56;;;;;;;11.13;10.13;;;21.20;1.00;;;;;;4992273;28;20459;-53
2022/09/08 06:00:22;;;;;;;10.97;9.87;;;21.20;1.00;;;;;;4991216;28;20197;-55
2022/09/08 06:02:49;;;;;;;12.73;11.60;;;21.30;1.00;;;;;;4989042;28;20187;-55
2022/09/08 06:05:16;;;;;;;12.43;11.43;;;21.30;1.00;;;;;;4988720;28;20268;-54
2022/09/08 06:07:41;;;;;;;14.17;12.43;;;21.30;1.00;;;;;;4998188;28;20446;-54
2022/09/08 06:10:08;;;;;;;12.70;11.40;;;21.40;1.00;;;;;;4993914;28;20998;-55
2022/09/08 06:12:33;;;;;;;12.33;10.97;;;21.50;1.00;;;;;;5004925;28;20177;-54
2022/09/08 06:14:59;;;;;;;13.00;11.90;;;21.60;1.00;;;;;;4994644;28;20422;-53
2022/09/08 06:17:24;;;;;;;13.10;11.70;;;21.60;1.00;;;;;;4997700;28;20205;-53
2022/09/08 06:19:50;;;;;;;16.07;14.37;;;21.80;1.00;;;;;;4978085;28;20201;-55
2022/09/08 06:22:15;;;;;;;16.00;14.43;;;21.90;1.00;;;;;;4994391;28;20201;-55
2022/09/08 06:24:41;;;;;;;14.67;13.47;;;21.60;1.00;;;;;;4995718;28;20326;-53
2022/09/08 06:27:10;;;;;;;12.97;11.77;;;21.50;1.00;;;;;;4994378;28;20233;-55
2022/09/08 06:29:41;;;;;;;18.00;12.07;;;21.40;1.00;;;;;;4993712;28;20190;-55
2022/09/08 06:32:21;;;;;;;14.13;12.67;;;21.70;1.00;;;;;;4991148;28;20446;-55
2022/09/08 06:35:05;;;;;;;17.40;13.60;;;22.00;1.00;;;;;;5005262;28;20444;-56
2022/09/08 06:37:51;;;;;;;14.63;12.20;;;22.10;1.00;;;;;;5005305;28;20415;-55
2022/09/08 06:40:32;;;;;;;13.57;12.27;;;21.80;1.00;;;;;;4994337;28;20915;-52
2022/09/08 06:43:16;;;;;;;15.80;12.20;;;21.80;1.00;;;;;;4974491;28;20481;-55
2022/09/08 06:45:51;;;;;;;13.57;11.23;;;21.70;1.00;;;;;;4995963;28;20483;-54
2022/09/08 06:48:33;;;;;;;12.30;11.10;;;21.70;1.00;;;;;;4975001;28;20759;-53
2022/09/08 06:51:10;;;;;;;12.07;11.00;;;21.80;1.00;;;;;;4993622;28;20528;-53
2022/09/08 06:53:44;;;;;;;13.50;11.10;;;21.90;1.00;;;;;;4992244;28;20447;-52
2022/09/08 06:56:43;;;;;;;29.13;12.40;;;22.20;1.00;;;;;;4994182;28;20445;-54
2022/09/08 06:59:24;;;;;;;21.03;11.70;;;22.70;1.00;;;;;;4991134;28;20442;-54
2022/09/08 07:02:22;;;;;;;13.67;12.27;;;22.80;1.00;;;;;;4993984;28;20784;-55
2022/09/08 07:04:58;;;;;;;13.33;11.13;;;22.80;1.00;;;;;;4985416;28;20512;-55
2022/09/08 07:07:35;;;;;;;18.93;12.10;;;22.90;1.00;;;;;;4993247;28;20472;-54
2022/09/08 07:10:24;;;;;;;13.53;12.13;;;22.90;1.00;;;;;;4993874;28;20510;-55
2022/09/08 07:12:58;;;;;;;12.27;11.17;;;22.90;1.00;;;;;;4991364;28;20441;-55
2022/09/08 07:15:29;;;;;;;13.80;12.20;;;22.90;1.00;;;;;;4991327;28;20462;-56
2022/09/08 07:18:47;;;;;;;13.10;11.00;;;23.00;1.00;;;;;;4992824;28;20432;-55
2022/09/08 07:21:19;;;;;;;17.33;12.20;;;23.00;1.00;;;;;;4988496;28;20505;-54
2022/09/08 07:23:46;;;;;;;14.33;12.30;;;22.90;1.00;;;;;;4993155;28;20450;-54
2022/09/08 07:26:20;;;;;;;12.87;11.50;;;22.90;1.00;;;;;;4993481;28;20789;-55
2022/09/08 07:28:49;;;;;;;13.30;12.20;;;22.70;1.00;;;;;;4993259;28;20553;-55
2022/09/08 07:31:24;;;;;;;15.17;12.03;;;22.60;1.00;;;;;;4975976;28;20452;-55
2022/09/08 07:34:04;;;;;;;13.93;11.73;;;22.60;1.00;;;;;;4991719;28;20475;-53
2022/09/08 07:36:37;;;;;;;13.33;12.13;;;22.30;1.00;;;;;;4975949;28;20445;-53
2022/09/08 07:39:28;;;;;;;17.80;13.07;;;22.30;1.00;;;;;;4993148;28;20437;-54
2022/09/08 07:41:59;;;;;;;14.67;13.20;;;22.20;1.00;;;;;;4992495;28;20493;-56
2022/09/08 07:44:26;;;;;;;16.30;12.60;;;22.20;1.00;;;;;;4989546;28;20509;-57
2022/09/08 07:46:58;;;;;;;17.63;13.30;;;22.30;1.00;;;;;;4992687;28;20512;-52
2022/09/08 07:49:42;;;;;;;16.07;12.90;;;22.30;1.00;;;;;;4989996;28;20450;-55
2022/09/08 07:52:28;;;;;;;13.90;12.47;;;22.20;1.00;;;;;;4989737;28;20487;-53
2022/09/08 07:55:14;;;;;;;12.70;11.43;;;22.10;1.00;;;;;;4993315;28;20449;-56
2022/09/08 07:58:14;;;;;;;13.93;12.50;;;22.10;1.00;;;;;;4992461;28;20419;-54
2022/09/08 08:00:51;;;;;;;16.20;12.73;;;22.00;1.00;;;;;;4989551;28;20437;-55
2022/09/08 08:03:27;;;;;;;14.17;12.57;;;22.00;1.00;;;;;;4992934;28;20416;-55
2022/09/08 08:06:19;;;;;;;12.50;11.40;;;22.00;1.00;;;;;;4992991;28;20473;-53
2022/09/08 08:09:11;;;;;;;14.20;12.83;;;22.00;1.00;;;;;;4992933;28;20504;-55
2022/09/08 08:11:51;;;;;;;23.00;13.77;;;22.10;1.00;;;;;;4991769;28;20988;-55
2022/09/08 08:14:46;;;;;;;15.27;13.67;;;22.20;1.00;;;;;;4990808;28;20914;-54
2022/09/08 08:17:25;;;;;;;14.67;13.40;;;22.50;1.00;;;;;;4904357;28;20487;-56
2022/09/08 08:20:05;;;;;;;15.80;13.70;;;22.40;1.00;;;;;;4989845;28;20761;-53
2022/09/08 08:22:59;;;;;;;14.03;12.20;;;22.50;1.00;;;;;;4987135;28;20490;-53
2022/09/08 08:25:29;;;;;;;13.93;12.73;;;22.50;1.00;;;;;;4991135;28;20499;-55
2022/09/08 08:28:04;;;;;;;14.43;12.93;;;22.50;1.00;;;;;;4994941;28;20464;-56
2022/09/08 08:30:35;;;;;;;13.70;12.40;;;22.50;1.00;;;;;;4992246;28;20441;-55
2022/09/08 08:33:24;;;;;;;14.53;13.23;;;22.60;1.00;;;;;;4991306;28;20449;-54
2022/09/08 08:35:50;;;;;;;14.77;13.37;;;22.60;1.00;;;;;;4994260;28;20445;-56
2022/09/08 08:38:20;;;;;;;15.23;13.80;;;22.60;1.00;;;;;;4991343;28;20806;-54
2022/09/08 08:40:56;;;;;;;13.93;12.60;;;24.50;1.00;;;;;;4991266;28;20190;-56
2022/09/08 08:43:25;;;;;;;15.60;13.93;;;22.80;1.00;;;;;;4991202;28;21207;-55
2022/09/08 08:46:06;;;;;;;15.50;14.10;;;22.90;1.00;;;;;;4991471;28;20500;-53
2022/09/08 08:48:40;;;;;;;13.97;12.87;;;22.90;1.00;;;;;;4994321;28;20445;-55
2022/09/08 08:51:13;;;;;;;16.90;15.10;;;22.90;1.00;;;;;;4992351;28;20484;-55
2022/09/08 08:54:11;;;;;;;17.07;15.57;;;23.00;1.00;;;;;;4991845;28;20441;-56
2022/09/08 08:56:39;;;;;;;15.07;13.47;;;23.10;1.00;;;;;;4990922;28;20453;-55
2022/09/08 08:59:26;;;;;;;14.20;12.87;;;23.10;1.00;;;;;;4991946;28;20444;-56
2022/09/08 09:02:10;;;;;;;14.50;13.07;;;22.90;1.00;;;;;;4991682;28;20405;-54
2022/09/08 09:04:53;;;;;;;13.37;12.07;;;22.90;1.00;;;;;;5006130;28;20445;-55
2022/09/08 09:07:42;;;;;;;14.23;12.73;;;23.10;1.00;;;;;;4993614;28;20445;-55
2022/09/08 09:10:25;;;;;;;14.53;13.13;;;23.00;1.00;;;;;;4992622;28;20784;-55
2022/09/08 09:13:12;;;;;;;12.97;11.80;;;22.90;1.00;;;;;;5001143;28;20450;-53
2022/09/08 09:15:50;;;;;;;11.83;8.60;;;22.90;1.00;;;;;;4991645;28;20849;-56
2022/09/08 09:18:40;;;;;;;6.10;5.50;;;22.90;1.00;;;;;;4991706;28;20952;-56
2022/09/08 09:21:47;;;;;;;5.03;4.53;;;22.60;1.00;;;;;;4991075;28;20441;-52
2022/09/08 09:24:37;;;;;;;7.07;4.40;;;22.40;1.00;;;;;;5004018;28;20428;-55
2022/09/08 09:27:30;;;;;;;4.30;3.90;;;22.30;1.00;;;;;;4964120;28;20479;-54
2022/09/08 09:30:19;;;;;;;5.57;4.10;;;22.20;1.00;;;;;;5010876;28;20914;-55
2022/09/08 09:33:16;;;;;;;5.00;4.43;;;22.20;1.00;;;;;;5010770;28;20432;-55
2022/09/08 09:36:05;;;;;;;7.57;5.07;;;22.30;1.00;;;;;;5000021;28;20897;-54
2022/09/08 09:38:37;;;;;;;7.00;4.70;;;22.50;1.00;;;;;;5002918;28;20539;-54
2022/09/08 09:41:31;;;;;;;4.07;3.77;;;22.50;1.00;;;;;;4990620;28;20469;-58
2022/09/08 09:44:31;;;;;;;6.70;3.70;;;22.40;1.00;;;;;;4990090;28;20776;-54
2022/09/08 09:47:22;;;;;;;4.60;4.07;;;22.20;1.00;;;;;;4953292;28;20459;-56
2022/09/08 09:50:38;;;;;;;5.20;4.43;;;22.10;1.00;;;;;;4991641;28;20404;-54
2022/09/08 09:53:15;;;;;;;6.10;3.63;;;22.10;1.00;;;;;;4950001;28;20537;-56
2022/09/08 09:55:53;;;;;;;4.57;4.17;;;22.10;1.00;;;;;;4987285;28;20755;-56
2022/09/08 09:58:37;;;;;;;5.33;4.60;;;22.10;1.00;;;;;;5001641;28;20901;-55
2022/09/08 10:01:28;;;;;;;5.53;4.60;;;22.10;1.00;;;;;;5010532;28;20533;-55
2022/09/08 10:04:23;;;;;;;7.13;5.70;;;22.10;1.00;;;;;;5010594;28;20471;-55
2022/09/08 10:07:19;;;;;;;5.70;5.13;;;22.00;1.00;;;;;;5010572;28;21092;-56
2022/09/08 10:09:51;;;;;;;6.27;5.67;;;22.10;1.00;;;;;;4993637;28;20468;-55
2022/09/08 10:12:52;;;;;;;7.10;5.83;;;22.10;1.00;;;;;;4989525;28;20430;-55
2022/09/08 10:15:36;;;;;;;7.90;6.70;;;22.20;1.00;;;;;;4998262;28;20436;-57
2022/09/08 10:18:21;;;;;;;6.53;5.93;;;22.10;1.00;;;;;;5010181;28;20455;-55
2022/09/08 10:20:57;;;;;;;6.80;6.10;;;22.00;1.00;;;;;;4986907;28;20422;-57
2022/09/08 10:23:50;;;;;;;7.73;5.30;;;21.90;1.00;;;;;;4990011;28;20424;-55
2022/09/08 10:26:34;;;;;;;9.13;6.50;;;21.80;1.00;;;;;;4990800;28;20920;-53
2022/09/08 10:29:19;;;;;;;8.47;7.13;;;21.60;1.00;;;;;;4988915;28;20507;-55
2022/09/08 10:32:13;;;;;;;7.20;6.47;;;21.60;1.00;;;;;;4990132;28;21175;-56
2022/09/08 10:35:16;;;;;;;7.93;7.13;;;21.40;1.00;;;;;;4990716;28;20513;-55
2022/09/08 10:37:47;;;;;;;9.83;7.27;;;21.30;1.00;;;;;;4991272;28;20469;-56
2022/09/08 10:40:36;;;;;;;7.70;6.97;;;21.40;1.00;;;;;;5010361;28;20436;-57
2022/09/08 10:43:46;;;;;;;9.00;7.47;;;21.30;1.00;;;;;;4994810;28;20469;-54
2022/09/08 10:46:30;;;;;;;10.00;7.90;;;21.40;1.00;;;;;;4988251;28;20461;-56
2022/09/08 10:49:05;;;;;;;10.30;7.80;;;21.30;1.00;;;;;;4982398;28;20864;-54
2022/09/08 10:51:46;;;;;;;9.90;7.50;;;21.10;1.00;;;;;;4971497;28;20417;-56
2022/09/08 10:54:46;;;;;;;8.33;7.47;;;21.10;1.00;;;;;;4980661;28;20437;-56
2022/09/08 10:57:39;;;;;;;8.87;8.07;;;21.00;1.00;;;;;;4994161;28;20437;-56
2022/09/08 11:00:09;;;;;;;12.67;9.23;;;21.00;1.00;;;;;;4992291;28;20499;-56
2022/09/08 11:02:43;;;;;;;10.60;9.50;;;21.10;1.00;;;;;;4989918;28;20414;-56
2022/09/08 11:05:44;;;;;;;10.50;9.17;;;21.30;1.00;;;;;;4994457;28;20458;-55
2022/09/08 11:08:43;;;;;;;11.30;10.20;;;21.40;1.00;;;;;;4989962;28;20427;-56
2022/09/08 11:11:41;;;;;;;10.70;9.57;;;21.50;1.00;;;;;;4989150;28;20452;-54
2022/09/08 11:14:15;;;;;;;11.97;10.87;;;21.50;1.00;;;;;;4921487;28;20553;-56
2022/09/08 11:17:07;;;;;;;11.40;10.30;;;21.60;1.00;;;;;;5000111;28;20489;-56
2022/09/08 11:19:41;;;;;;;11.83;10.70;;;21.50;1.00;;;;;;4991082;28;20454;-56
2022/09/08 11:22:35;;;;;;;12.37;10.07;;;21.40;1.00;;;;;;4993099;28;20431;-55
2022/09/08 11:25:30;;;;;;;11.90;10.80;;;21.40;1.00;;;;;;4997572;28;20416;-56
2022/09/08 11:28:25;;;;;;;11.47;10.20;;;21.40;1.00;;;;;;4992896;28;20962;-55
2022/09/08 11:31:16;;;;;;;11.60;10.50;;;21.50;1.00;;;;;;4992976;28;20525;-57
2022/09/08 11:33:45;;;;;;;12.80;11.50;;;21.40;1.00;;;;;;4993042;28;20456;-55
2022/09/08 11:36:22;;;;;;;14.73;13.20;;;21.40;1.00;;;;;;4988911;28;20442;-55
2022/09/08 11:39:08;;;;;;;13.70;12.40;;;21.50;1.00;;;;;;4994329;28;20453;-55
2022/09/08 11:41:42;;;;;;;13.63;12.33;;;21.40;1.00;;;;;;4992191;28;20954;-55
2022/09/08 11:44:34;;;;;;;9.37;8.47;;;21.30;1.00;;;;;;4993725;28;20441;-55
2022/09/08 11:47:23;;;;;;;9.07;8.27;;;21.40;1.00;;;;;;4980247;28;20748;-55
2022/09/08 11:50:11;;;;;;;8.83;7.93;;;21.50;1.00;;;;;;4991952;28;20442;-55
2022/09/08 11:53:06;;;;;;;6.83;6.23;;;21.50;1.00;;;;;;4975885;28;20441;-55
2022/09/08 11:56:01;;;;;;;8.43;7.47;;;21.50;1.00;;;;;;4993350;28;20433;-55
2022/09/08 11:58:54;;;;;;;8.50;7.70;;;21.40;1.00;;;;;;4993479;28;20445;-54
2022/09/08 12:01:44;;;;;;;6.80;6.20;;;21.40;1.00;;;;;;4993217;28;20776;-55
2022/09/08 12:04:23;;;;;;;6.53;5.93;;;21.50;1.00;;;;;;4992721;28;20436;-55
2022/09/08 12:07:09;;;;;;;6.03;5.43;;;21.70;1.00;;;;;;4992508;28;20441;-54
2022/09/08 12:10:21;;;;;;;7.73;6.60;;;22.10;1.00;;;;;;4992990;28;20514;-53
2022/09/08 12:12:59;;;;;;;6.83;5.30;;;22.10;1.00;;;;;;4992895;28;20436;-57
2022/09/08 12:15:52;;;;;;;5.60;5.10;;;22.20;1.00;;;;;;4993124;28;20476;-56
2022/09/08 12:18:42;;;;;;;6.53;5.87;;;22.40;1.00;;;;;;4975161;28;20438;-55
2022/09/08 12:21:44;;;;;;;6.20;5.60;;;22.40;1.00;;;;;;4992597;28;20819;-56
2022/09/08 12:24:18;;;;;;;6.93;6.33;;;22.50;1.00;;;;;;4992488;28;20436;-56
2022/09/08 12:26:57;;;;;;;10.20;9.10;;;22.60;1.00;;;;;;4974872;28;20528;-53
2022/09/08 12:29:36;;;;;;;5.70;5.00;;;22.60;1.00;;;;;;4992387;28;20437;-56
2022/09/08 12:32:41;;;;;;;5.73;5.20;;;22.60;1.00;;;;;;4992414;28;20437;-55
2022/09/08 12:35:16;;;;;;;4.80;4.37;;;22.50;1.00;;;;;;4943424;28;20448;-54
2022/09/08 12:37:57;;;;;;;5.77;4.43;;;22.60;1.00;;;;;;4995302;28;20736;-55
2022/09/08 12:40:44;;;;;;;5.30;4.83;;;22.70;1.00;;;;;;5012241;28;20432;-56
2022/09/08 12:43:23;;;;;;;4.40;4.00;;;22.80;1.00;;;;;;5011565;28;20459;-57
2022/09/08 12:46:24;;;;;;;4.83;4.40;;;22.90;1.00;;;;;;5011717;28;20468;-54
2022/09/08 12:48:59;;;;;;;5.60;4.97;;;22.90;1.00;;;;;;5012021;28;20446;-54
2022/09/08 12:51:31;;;;;;;4.57;4.20;;;22.90;1.00;;;;;;5011458;28;20412;-54
2022/09/08 12:53:57;;;;;;;5.40;4.07;;;23.00;1.00;;;;;;4992110;28;20466;-54
2022/09/08 12:56:32;;;;;;;7.10;4.37;;;22.80;1.00;;;;;;4991923;28;20433;-55
2022/09/08 12:59:19;;;;;;;4.40;4.00;;;22.70;1.00;;;;;;4992741;28;20191;-57
2022/09/08 13:01:59;;;;;;;3.67;3.37;;;22.70;1.00;;;;;;4992180;28;20450;-55
2022/09/08 13:04:56;;;;;;;4.20;3.80;;;22.90;1.00;;;;;;4992012;28;20491;-54
2022/09/08 13:08:05;;;;;;;5.00;3.67;;;23.00;1.00;;;;;;4990894;28;20466;-53
2022/09/08 13:10:35;;;;;;;4.03;3.63;;;23.20;1.00;;;;;;4945975;28;20420;-55
2022/09/08 13:13:43;;;;;;;3.13;2.83;;;23.40;1.00;;;;;;4991875;28;20974;-54
2022/09/08 13:16:30;;;;;;;4.10;2.77;;;23.50;1.00;;;;;;4970753;28;20433;-54
2022/09/08 13:19:02;;;;;;;3.57;3.23;;;23.60;1.00;;;;;;5001291;28;20472;-55
2022/09/08 13:21:37;;;;;;;2.87;2.67;;;23.60;1.00;;;;;;5011250;28;20420;-57
2022/09/08 13:24:29;;;;;;;4.10;3.20;;;23.70;1.00;;;;;;5011540;28;20806;-55
2022/09/08 13:27:32;;;;;;;3.50;3.10;;;24.00;1.00;;;;;;5011429;28;20442;-54
2022/09/08 13:30:00;;;;;;;2.33;2.17;;;24.00;1.00;;;;;;5011393;28;20753;-57
2022/09/08 13:32:37;;;;;;;2.00;1.70;;;24.10;1.00;;;;;;5010980;28;20433;-54
2022/09/08 13:35:12;;;;;;;2.03;1.70;;;24.10;1.00;;;;;;5011310;28;20421;-56
2022/09/08 13:38:14;;;;;;;1.67;1.37;;;24.10;1.00;;;;;;5011252;28;20440;-53